Time,TemperatureF,DewpointF,PressureIn,WindDirection,WindDirectionDegrees,WindSpeedMPH,WindSpeedGustMPH,Humidity,HourlyPrecipIn,Conditions,Clouds,dailyrainin,SoftwareType,DateUTC
2013-01-07 00:02:00,20.0,4.0,-100.00,NE,49,5.0,10.0,50,-99.99,,,-99.99,,2013-01-07 08:02:00,
2013-01-07 00:11:00,16.0,2.0,-100.00,NNE,21,4.0,6.0,55,-99.99,,,-99.99,,2013-01-07 08:11:00,
2013-01-07 00:22:00,16.0,3.0,-100.00,NE,44,4.0,9.0,55,-99.99,,,-99.99,,2013-01-07 08:22:00,
2013-01-07 00:32:00,19.0,3.0,-100.00,ENE,66,8.0,12.0,49,-99.99,,,-99.99,,2013-01-07 08:32:00,
2013-01-07 00:42:00,18.0,3.0,-100.00,ENE,65,8.0,10.0,52,-99.99,,,-99.99,,2013-01-07 08:42:00,
2013-01-07 00:52:00,18.0,3.0,-100.00,ENE,69,7.0,11.0,52,-99.99,,,-99.99,,2013-01-07 08:52:00,
2013-01-07 01:02:00,12.0,2.0,-100.00,NNE,31,6.0,9.0,63,-99.99,,,-99.99,,2013-01-07 09:02:00,
2013-01-07 01:12:00,11.0,3.0,-100.00,North,10,4.0,6.0,69,-99.99,,,-99.99,,2013-01-07 09:12:00,
2013-01-07 01:22:00,11.0,1.0,-100.00,North,4,5.0,8.0,64,-99.99,,,-99.99,,2013-01-07 09:22:00,
2013-01-07 01:32:00,14.0,3.0,-100.00,NNE,28,5.0,8.0,59,-99.99,,,-99.99,,2013-01-07 09:32:00,
2013-01-07 01:42:00,12.0,2.0,-100.00,North,3,4.0,7.0,64,-99.99,,,-99.99,,2013-01-07 09:42:00,
2013-01-07 01:52:00,16.0,4.0,-100.00,NE,38,6.0,10.0,58,-99.99,,,-99.99,,2013-01-07 09:52:00,
2013-01-07 02:02:00,19.0,4.0,-100.00,NE,56,7.0,11.0,53,-99.99,,,-99.99,,2013-01-07 10:02:00,
2013-01-07 02:12:00,20.0,4.0,-100.00,ENE,71,7.0,11.0,51,-99.99,,,-99.99,,2013-01-07 10:12:00,
2013-01-07 02:22:00,20.0,4.0,-100.00,ENE,72,9.0,13.0,49,-99.99,,,-99.99,,2013-01-07 10:22:00,
2013-01-07 02:32:00,15.0,2.0,-100.00,NNE,25,7.0,9.0,55,-99.99,,,-99.99,,2013-01-07 10:32:00,
2013-01-07 02:42:00,17.0,5.0,-100.00,ENE,66,6.0,12.0,58,-99.99,,,-99.99,,2013-01-07 10:42:00,
2013-01-07 02:52:00,20.0,4.0,-100.00,ENE,65,10.0,14.0,49,-99.99,,,-99.99,,2013-01-07 10:52:00,
2013-01-07 03:02:00,19.0,4.0,-100.00,ENE,65,9.0,12.0,51,-99.99,,,-99.99,,2013-01-07 11:02:00,
2013-01-07 03:12:00,19.0,4.0,-100.00,ENE,69,8.0,11.0,51,-99.99,,,-99.99,,2013-01-07 11:12:00,
2013-01-07 03:22:00,18.0,3.0,-100.00,ENE,64,8.0,13.0,51,-99.99,,,-99.99,,2013-01-07 11:22:00,
2013-01-07 03:32:00,16.0,3.0,-100.00,NE,51,6.0,9.0,56,-99.99,,,-99.99,,2013-01-07 11:32:00,
2013-01-07 03:43:00,16.0,3.0,-100.00,ENE,65,7.0,10.0,56,-99.99,,,-99.99,,2013-01-07 11:43:00,
2013-01-07 03:52:00,17.0,3.0,-100.00,ENE,65,9.0,13.0,54,-99.99,,,-99.99,,2013-01-07 11:52:00,
2013-01-07 04:02:00,12.0,0.0,-100.00,NE,44,6.0,11.0,59,-99.99,,,-99.99,,2013-01-07 12:02:00,
2013-01-07 04:12:00,13.0,4.0,-100.00,NE,41,5.0,9.0,65,-99.99,,,-99.99,,2013-01-07 12:12:00,
2013-01-07 04:22:00,16.0,3.0,-100.00,NE,51,7.0,12.0,56,-99.99,,,-99.99,,2013-01-07 12:22:00,
2013-01-07 04:32:00,17.0,3.0,-100.00,ENE,69,8.0,11.0,53,-99.99,,,-99.99,,2013-01-07 12:32:00,
2013-01-07 04:43:00,16.0,3.0,-100.00,NE,47,6.0,9.0,56,-99.99,,,-99.99,,2013-01-07 12:43:00,
2013-01-07 04:52:00,16.0,3.0,-100.00,ENE,59,5.0,8.0,54,-99.99,,,-99.99,,2013-01-07 12:52:00,
2013-01-07 05:02:00,13.0,2.0,-100.00,NE,55,5.0,8.0,63,-99.99,,,-99.99,,2013-01-07 13:02:00,
2013-01-07 05:12:00,11.0,2.0,-100.00,NNE,27,5.0,8.0,64,-99.99,,,-99.99,,2013-01-07 13:12:00,
2013-01-07 05:22:00,14.0,0.0,-100.00,North,359,3.0,6.0,54,-99.99,,,-99.99,,2013-01-07 13:22:00,
2013-01-07 05:32:00,12.0,1.0,-100.00,NNE,20,3.0,7.0,61,-99.99,,,-99.99,,2013-01-07 13:32:00,
2013-01-07 05:42:00,12.0,1.0,-100.00,NNE,20,3.0,7.0,61,-99.99,,,-99.99,,2013-01-07 13:42:00,
2013-01-07 05:52:00,11.0,-2.0,-100.00,NE,51,6.0,9.0,55,-99.99,,,-99.99,,2013-01-07 13:52:00,
2013-01-07 06:03:00,12.0,2.0,-100.00,NNE,32,5.0,8.0,64,-99.99,,,-99.99,,2013-01-07 14:03:00,
2013-01-07 06:12:00,17.0,3.0,-100.00,ENE,65,8.0,13.0,53,-99.99,,,-99.99,,2013-01-07 14:12:00,
2013-01-07 06:22:00,14.0,-1.0,-100.00,NE,51,7.0,12.0,50,-99.99,,,-99.99,,2013-01-07 14:22:00,
2013-01-07 06:33:00,17.0,3.0,-100.00,NNE,32,5.0,8.0,53,-99.99,,,-99.99,,2013-01-07 14:33:00,
2013-01-07 06:42:00,16.0,2.0,-100.00,NNE,24,4.0,8.0,53,-99.99,,,-99.99,,2013-01-07 14:42:00,
2013-01-07 06:53:00,10.0,-3.0,-100.00,NNE,21,3.0,6.0,55,-99.99,,,-99.99,,2013-01-07 14:53:00,
2013-01-07 07:02:00,10.0,-3.0,-100.00,NNE,21,3.0,6.0,55,-99.99,,,-99.99,,2013-01-07 15:02:00,
2013-01-07 07:12:00,10.0,-3.0,-100.00,NNE,21,3.0,6.0,55,-99.99,,,-99.99,,2013-01-07 15:12:00,
2013-01-07 07:22:00,11.0,0.0,-100.00,NNE,21,3.0,8.0,60,-99.99,,,-99.99,,2013-01-07 15:22:00,
2013-01-07 07:33:00,9.0,-1.0,-100.00,NE,35,3.0,6.0,63,-99.99,,,-99.99,,2013-01-07 15:33:00,
2013-01-07 07:42:00,11.0,0.0,-100.00,North,1,2.0,5.0,61,-99.99,,,-99.99,,2013-01-07 15:42:00,
2013-01-07 07:53:00,13.0,1.0,-100.00,North,6,2.0,4.0,58,-99.99,,,-99.99,,2013-01-07 15:53:00,
2013-01-07 08:02:00,16.0,2.0,-100.00,NNW,332,3.0,6.0,54,-99.99,,,-99.99,,2013-01-07 16:02:00,
2013-01-07 08:12:00,16.0,2.0,-100.00,North,350,4.0,7.0,53,-99.99,,,-99.99,,2013-01-07 16:12:00,
2013-01-07 08:22:00,16.0,2.0,-100.00,NNE,20,3.0,4.0,53,-99.99,,,-99.99,,2013-01-07 16:22:00,
2013-01-07 08:33:00,16.0,2.0,-100.00,NNE,20,3.0,4.0,53,-99.99,,,-99.99,,2013-01-07 16:33:00,
2013-01-07 08:53:00,21.0,4.0,-100.00,NNW,342,5.0,10.0,48,-99.99,,,-99.99,,2013-01-07 16:53:00,
2013-01-07 09:02:00,23.0,4.0,-100.00,NNW,339,7.0,10.0,44,-99.99,,,-99.99,,2013-01-07 17:02:00,
2013-01-07 09:12:00,23.0,4.0,-100.00,NNE,20,6.0,10.0,42,-99.99,,,-99.99,,2013-01-07 17:12:00,
2013-01-07 09:22:00,25.0,4.0,-100.00,NE,51,9.0,12.0,40,-99.99,,,-99.99,,2013-01-07 17:22:00,
2013-01-07 09:32:00,27.0,4.0,-100.00,NE,52,6.0,9.0,37,-99.99,,,-99.99,,2013-01-07 17:32:00,
2013-01-07 09:42:00,27.0,3.0,-100.00,NE,55,6.0,9.0,35,-99.99,,,-99.99,,2013-01-07 17:42:00,
2013-01-07 09:52:00,28.0,3.0,-100.00,NE,48,6.0,10.0,34,-99.99,,,-99.99,,2013-01-07 17:52:00,
2013-01-07 10:02:00,29.0,3.0,-100.00,NE,42,6.0,10.0,33,-99.99,,,-99.99,,2013-01-07 18:02:00,
2013-01-07 10:12:00,29.0,3.0,-100.00,NNE,23,6.0,8.0,32,-99.99,,,-99.99,,2013-01-07 18:12:00,
2013-01-07 10:23:00,30.0,4.0,-100.00,NE,41,8.0,11.0,33,-99.99,,,-99.99,,2013-01-07 18:23:00,
2013-01-07 10:32:00,31.0,4.0,-100.00,NE,42,7.0,11.0,32,-99.99,,,-99.99,,2013-01-07 18:32:00,
2013-01-07 10:42:00,30.0,7.0,-100.00,NNE,18,6.0,11.0,36,-99.99,,,-99.99,,2013-01-07 18:42:00,
2013-01-07 10:52:00,31.0,6.0,-100.00,NNW,343,9.0,14.0,34,-99.99,,,-99.99,,2013-01-07 18:52:00,
2013-01-07 11:03:00,31.0,6.0,-100.00,NNW,343,9.0,14.0,34,-99.99,,,-99.99,,2013-01-07 19:03:00,
2013-01-07 11:12:00,32.0,6.0,-100.00,North,350,6.0,10.0,33,-99.99,,,-99.99,,2013-01-07 19:12:00,
2013-01-07 11:22:00,32.0,8.0,-100.00,North,349,6.0,8.0,35,-99.99,,,-99.99,,2013-01-07 19:22:00,
2013-01-07 11:33:00,33.0,7.0,-100.00,North,10,5.0,9.0,33,-99.99,,,-99.99,,2013-01-07 19:33:00,
2013-01-07 11:42:00,34.0,10.0,-100.00,North,7,4.0,8.0,37,-99.99,,,-99.99,,2013-01-07 19:42:00,
2013-01-07 11:52:00,34.0,8.0,-100.00,North,349,4.0,7.0,33,-99.99,,,-99.99,,2013-01-07 19:52:00,
2013-01-07 12:02:00,35.0,8.0,-100.00,NNW,347,4.0,7.0,32,-99.99,,,-99.99,,2013-01-07 20:02:00,
2013-01-07 12:12:00,35.0,8.0,-100.00,NNW,346,6.0,9.0,32,-99.99,,,-99.99,,2013-01-07 20:12:00,
2013-01-07 12:22:00,36.0,8.0,-100.00,North,352,6.0,10.0,31,-99.99,,,-99.99,,2013-01-07 20:22:00,
2013-01-07 12:33:00,36.0,8.0,-100.00,North,352,6.0,10.0,31,-99.99,,,-99.99,,2013-01-07 20:33:00,
2013-01-07 12:52:00,36.0,8.0,-100.00,NW,320,6.0,10.0,31,-99.99,,,-99.99,,2013-01-07 20:52:00,
2013-01-07 13:02:00,36.0,10.0,-100.00,NW,325,5.0,9.0,34,-99.99,,,-99.99,,2013-01-07 21:02:00,
2013-01-07 13:12:00,36.0,9.0,-100.00,NNW,335,6.0,9.0,33,-99.99,,,-99.99,,2013-01-07 21:12:00,
2013-01-07 13:22:00,36.0,11.0,-100.00,NW,325,5.0,11.0,35,-99.99,,,-99.99,,2013-01-07 21:22:00,
2013-01-07 13:32:00,35.0,10.0,-100.00,NW,319,4.0,9.0,34,-99.99,,,-99.99,,2013-01-07 21:32:00,
2013-01-07 13:42:00,35.0,11.0,-100.00,NW,319,7.0,13.0,37,-99.99,,,-99.99,,2013-01-07 21:42:00,
2013-01-07 13:52:00,34.0,11.0,-100.00,NNW,336,7.0,11.0,38,-99.99,,,-99.99,,2013-01-07 21:52:00,
2013-01-07 14:02:00,34.0,12.0,-100.00,NNW,340,6.0,10.0,39,-99.99,,,-99.99,,2013-01-07 22:02:00,
2013-01-07 14:12:00,35.0,12.0,-100.00,NNW,339,5.0,9.0,38,-99.99,,,-99.99,,2013-01-07 22:12:00,
2013-01-07 14:22:00,35.0,14.0,-100.00,NNW,346,4.0,7.0,41,-99.99,,,-99.99,,2013-01-07 22:22:00,
2013-01-07 14:33:00,35.0,14.0,-100.00,NNW,346,4.0,7.0,41,-99.99,,,-99.99,,2013-01-07 22:33:00,
2013-01-07 14:42:00,35.0,12.0,-100.00,NW,312,5.0,8.0,38,-99.99,,,-99.99,,2013-01-07 22:42:00,
2013-01-07 14:52:00,35.0,13.0,-100.00,NW,319,5.0,9.0,40,-99.99,,,-99.99,,2013-01-07 22:52:00,
2013-01-07 15:02:00,34.0,14.0,-100.00,NW,326,5.0,8.0,42,-99.99,,,-99.99,,2013-01-07 23:02:00,
2013-01-07 15:12:00,34.0,14.0,-100.00,NNW,335,4.0,10.0,43,-99.99,,,-99.99,,2013-01-07 23:12:00,
2013-01-07 15:22:00,34.0,14.0,-100.00,NNW,335,4.0,10.0,43,-99.99,,,-99.99,,2013-01-07 23:22:00,
2013-01-07 15:32:00,33.0,14.0,-100.00,NW,325,6.0,9.0,44,-99.99,,,-99.99,,2013-01-07 23:32:00,
2013-01-07 15:42:00,32.0,15.0,-100.00,NNW,328,6.0,9.0,48,-99.99,,,-99.99,,2013-01-07 23:42:00,
2013-01-07 15:53:00,32.0,14.0,-100.00,NNW,332,4.0,8.0,48,-99.99,,,-99.99,,2013-01-07 23:53:00,
2013-01-07 16:02:00,32.0,14.0,-100.00,NNW,340,0.0,3.0,46,-99.99,,,-99.99,,2013-01-08 00:02:00,
2013-01-07 16:12:00,32.0,14.0,-100.00,NE,42,0.0,2.0,46,-99.99,,,-99.99,,2013-01-08 00:12:00,
2013-01-07 16:22:00,32.0,13.0,-100.00,NE,42,2.0,5.0,45,-99.99,,,-99.99,,2013-01-08 00:22:00,
2013-01-07 16:32:00,32.0,13.0,-100.00,NE,42,2.0,5.0,45,-99.99,,,-99.99,,2013-01-08 00:32:00,
2013-01-07 16:42:00,32.0,13.0,-100.00,NE,42,2.0,5.0,45,-99.99,,,-99.99,,2013-01-08 00:42:00,
2013-01-07 16:52:00,29.0,14.0,-100.00,NNW,346,4.0,8.0,52,-99.99,,,-99.99,,2013-01-08 00:52:00,
2013-01-07 17:02:00,28.0,13.0,-100.00,North,8,4.0,6.0,53,-99.99,,,-99.99,,2013-01-08 01:02:00,
2013-01-07 17:12:00,28.0,13.0,-100.00,North,8,4.0,6.0,53,-99.99,,,-99.99,,2013-01-08 01:12:00,
2013-01-07 17:22:00,28.0,13.0,-100.00,North,8,4.0,6.0,53,-99.99,,,-99.99,,2013-01-08 01:22:00,
2013-01-07 17:32:00,27.0,13.0,-100.00,NNW,343,4.0,7.0,56,-99.99,,,-99.99,,2013-01-08 01:32:00,
2013-01-07 17:42:00,26.0,13.0,-100.00,North,356,4.0,8.0,58,-99.99,,,-99.99,,2013-01-08 01:42:00,
2013-01-07 17:52:00,26.0,13.0,-100.00,NNE,24,3.0,6.0,58,-99.99,,,-99.99,,2013-01-08 01:52:00,
2013-01-07 18:02:00,27.0,13.0,-100.00,ENE,58,5.0,9.0,53,-99.99,,,-99.99,,2013-01-08 02:02:00,
2013-01-07 18:12:00,28.0,12.0,-100.00,NE,49,4.0,10.0,51,-99.99,,,-99.99,,2013-01-08 02:12:00,
2013-01-07 18:22:00,27.0,12.0,-100.00,NE,51,4.0,6.0,53,-99.99,,,-99.99,,2013-01-08 02:22:00,
2013-01-07 18:32:00,25.0,13.0,-100.00,NNE,32,3.0,6.0,58,-99.99,,,-99.99,,2013-01-08 02:32:00,
2013-01-07 18:42:00,27.0,13.0,-100.00,NNE,28,4.0,7.0,54,-99.99,,,-99.99,,2013-01-08 02:42:00,
2013-01-07 18:53:00,26.0,13.0,-100.00,NNE,25,2.0,4.0,56,-99.99,,,-99.99,,2013-01-08 02:53:00,
2013-01-07 19:03:00,23.0,13.0,-100.00,North,360,2.0,4.0,63,-99.99,,,-99.99,,2013-01-08 03:03:00,
2013-01-07 19:12:00,23.0,12.0,-100.00,North,4,2.0,5.0,63,-99.99,,,-99.99,,2013-01-08 03:12:00,
2013-01-07 19:22:00,22.0,12.0,-100.00,North,360,3.0,5.0,65,-99.99,,,-99.99,,2013-01-08 03:22:00,
2013-01-07 19:32:00,23.0,12.0,-100.00,NNE,23,3.0,5.0,62,-99.99,,,-99.99,,2013-01-08 03:32:00,
2013-01-07 19:42:00,24.0,12.0,-100.00,ENE,65,4.0,6.0,59,-99.99,,,-99.99,,2013-01-08 03:42:00,
2013-01-07 19:52:00,24.0,12.0,-100.00,NE,48,3.0,5.0,60,-99.99,,,-99.99,,2013-01-08 03:52:00,
2013-01-07 20:02:00,25.0,13.0,-100.00,NE,35,4.0,8.0,61,-99.99,,,-99.99,,2013-01-08 04:02:00,
2013-01-07 20:12:00,26.0,14.0,-100.00,NE,35,3.0,6.0,59,-99.99,,,-99.99,,2013-01-08 04:12:00,
2013-01-07 20:22:00,25.0,13.0,-100.00,ENE,71,2.0,4.0,60,-99.99,,,-99.99,,2013-01-08 04:22:00,
2013-01-07 20:32:00,26.0,13.0,-100.00,NE,55,3.0,5.0,58,-99.99,,,-99.99,,2013-01-08 04:32:00,
2013-01-07 20:42:00,26.0,13.0,-100.00,ENE,72,3.0,6.0,58,-99.99,,,-99.99,,2013-01-08 04:42:00,
2013-01-07 20:52:00,25.0,12.0,-100.00,NE,54,3.0,5.0,58,-99.99,,,-99.99,,2013-01-08 04:52:00,
2013-01-07 21:03:00,26.0,14.0,-100.00,NE,48,3.0,6.0,60,-99.99,,,-99.99,,2013-01-08 05:03:00,
2013-01-07 21:12:00,24.0,14.0,-100.00,ENE,61,3.0,6.0,63,-99.99,,,-99.99,,2013-01-08 05:12:00,
2013-01-07 21:22:00,24.0,14.0,-100.00,NNE,31,1.0,3.0,65,-99.99,,,-99.99,,2013-01-08 05:22:00,
2013-01-07 21:33:00,26.0,16.0,-100.00,East,80,3.0,5.0,67,-99.99,,,-99.99,,2013-01-08 05:33:00,
2013-01-07 21:42:00,21.0,12.0,-100.00,ENE,72,1.0,4.0,67,-99.99,,,-99.99,,2013-01-08 05:42:00,
2013-01-07 21:52:00,18.0,10.0,-100.00,NNE,20,2.0,4.0,70,-99.99,,,-99.99,,2013-01-08 05:52:00,
2013-01-07 22:02:00,18.0,11.0,-100.00,NE,42,1.0,3.0,76,-99.99,,,-99.99,,2013-01-08 06:02:00,
2013-01-07 22:12:00,22.0,16.0,-100.00,NE,37,2.0,5.0,78,-99.99,,,-99.99,,2013-01-08 06:12:00,
2013-01-07 22:22:00,24.0,18.0,-100.00,NE,51,3.0,5.0,78,-99.99,,,-99.99,,2013-01-08 06:22:00,
2013-01-07 22:32:00,24.0,18.0,-100.00,NE,51,3.0,5.0,78,-99.99,,,-99.99,,2013-01-08 06:32:00,
2013-01-07 22:42:00,23.0,19.0,-100.00,NE,49,3.0,8.0,84,-99.99,,,-99.99,,2013-01-08 06:42:00,
2013-01-07 22:52:00,23.0,20.0,-100.00,ENE,66,3.0,6.0,87,-99.99,,,-99.99,,2013-01-08 06:52:00,
2013-01-07 23:02:00,24.0,20.0,-100.00,NE,52,4.0,6.0,84,-99.99,,,-99.99,,2013-01-08 07:02:00,
2013-01-07 23:11:00,24.0,20.0,-100.00,NE,55,4.0,7.0,85,-99.99,,,-99.99,,2013-01-08 07:11:00,
2013-01-07 23:22:00,24.0,20.0,-100.00,NE,55,4.0,7.0,85,-99.99,,,-99.99,,2013-01-08 07:22:00,
2013-01-07 23:32:00,24.0,20.0,-100.00,NE,55,4.0,7.0,85,-99.99,,,-99.99,,2013-01-08 07:32:00,
2013-01-07 23:42:00,25.0,21.0,-100.00,ENE,64,4.0,8.0,83,-99.99,,,-99.99,,2013-01-08 07:42:00,
2013-01-07 23:52:00,24.0,20.0,-100.00,NE,55,4.0,7.0,83,-99.99,,,-99.99,,2013-01-08 07:52:00,